Time;durP1;ratioP1;P1;durP2;ratioP2;P2;SDS_P1;SDS_P2;PMS_P1;PMS_P2;Temp;Humidity;BMP_temperature;BMP_pressure;BME280_temperature;BME280_humidity;BME280_pressure;Samples;Min_cycle;Max_cycle;Signal;HPM_P1;HPM_P2
2023/09/30 00:02:20;;;;;;;25.13;11.60;;;18.40;17.20;;;;;;4987761;28;20528;-66
2023/09/30 00:04:47;;;;;;;22.20;11.03;;;18.40;17.20;;;;;;4985449;28;20484;-66
2023/09/30 00:07:14;;;;;;;27.40;12.60;;;18.40;17.10;;;;;;4988437;28;20463;-66
2023/09/30 00:09:42;;;;;;;24.50;12.80;;;18.40;17.10;;;;;;4989023;28;20960;-66
2023/09/30 00:12:09;;;;;;;23.63;11.77;;;18.40;17.10;;;;;;4988307;28;20468;-66
2023/09/30 00:14:37;;;;;;;25.13;12.23;;;18.30;17.10;;;;;;4983510;28;20576;-66
2023/09/30 00:17:04;;;;;;;23.23;11.20;;;18.40;17.10;;;;;;4988304;28;20574;-66
2023/09/30 00:19:33;;;;;;;21.30;11.50;;;18.40;17.10;;;;;;4988585;28;21118;-66
2023/09/30 00:22:00;;;;;;;26.13;14.00;;;18.40;17.40;;;;;;4988791;28;20474;-66
2023/09/30 00:24:27;;;;;;;27.03;14.07;;;18.30;17.20;;;;;;4987536;28;20477;-66
2023/09/30 00:26:56;;;;;;;28.43;13.70;;;18.30;17.10;;;;;;4986978;28;20460;-66
2023/09/30 00:29:23;;;;;;;23.80;12.53;;;18.30;17.20;;;;;;4987564;28;20551;-66
2023/09/30 00:31:49;;;;;;;24.30;12.40;;;18.30;17.20;;;;;;4987884;28;20505;-66
2023/09/30 00:34:16;;;;;;;30.03;14.20;;;18.30;17.20;;;;;;4985319;28;20488;-66
2023/09/30 00:36:43;;;;;;;27.73;13.63;;;18.30;17.20;;;;;;4984499;28;20460;-66
2023/09/30 00:39:10;;;;;;;28.73;13.20;;;18.30;17.20;;;;;;4986635;28;21064;-66
2023/09/30 00:41:39;;;;;;;25.40;12.30;;;18.20;17.50;;;;;;4988639;28;20468;-66
2023/09/30 00:44:08;;;;;;;28.07;13.60;;;18.20;17.40;;;;;;4984238;28;20488;-67
2023/09/30 00:46:37;;;;;;;27.10;12.83;;;18.10;17.50;;;;;;4984108;28;20461;-66
2023/09/30 00:49:04;;;;;;;27.57;12.07;;;18.00;17.80;;;;;;4987534;28;20818;-66
2023/09/30 00:51:32;;;;;;;27.97;12.13;;;18.00;17.80;;;;;;4988675;28;20465;-66
2023/09/30 00:54:00;;;;;;;26.43;12.27;;;17.90;18.00;;;;;;4985392;28;20937;-66
2023/09/30 00:56:29;;;;;;;26.77;12.20;;;17.90;18.00;;;;;;4985833;28;20460;-66
2023/09/30 00:58:57;;;;;;;29.53;13.50;;;17.80;18.20;;;;;;4987453;28;20472;-66
2023/09/30 01:01:25;;;;;;;27.33;13.30;;;17.70;18.50;;;;;;4985732;28;20483;-66
2023/09/30 01:03:52;;;;;;;27.50;12.03;;;17.70;18.70;;;;;;4984535;28;20519;-66
2023/09/30 01:06:19;;;;;;;29.40;13.30;;;17.60;18.90;;;;;;4987333;28;20536;-66
2023/09/30 01:08:46;;;;;;;26.17;11.97;;;17.60;18.90;;;;;;4987881;28;20470;-66
2023/09/30 01:11:15;;;;;;;22.60;11.20;;;17.60;19.00;;;;;;4988152;28;20483;-66
2023/09/30 01:13:43;;;;;;;25.50;12.87;;;17.50;19.00;;;;;;4984981;28;20491;-66
2023/09/30 01:16:11;;;;;;;26.07;12.43;;;17.50;19.20;;;;;;4985027;28;20571;-66
2023/09/30 01:18:40;;;;;;;26.30;13.43;;;17.40;19.40;;;;;;4985316;28;20504;-66
2023/09/30 01:21:08;;;;;;;24.80;12.73;;;17.30;19.70;;;;;;4992044;28;20457;-66
2023/09/30 01:23:36;;;;;;;26.13;11.90;;;17.30;19.70;;;;;;4990954;28;20484;-66
2023/09/30 01:26:05;;;;;;;26.60;12.10;;;17.20;20.00;;;;;;4991257;28;20475;-66
2023/09/30 01:28:32;;;;;;;26.30;13.30;;;17.20;20.00;;;;;;4989388;28;21004;-66
2023/09/30 01:30:58;;;;;;;23.80;12.13;;;17.20;20.00;;;;;;4988578;28;20476;-66
2023/09/30 01:33:25;;;;;;;27.40;12.70;;;17.20;20.20;;;;;;4990012;28;21000;-67
2023/09/30 01:35:52;;;;;;;31.37;13.23;;;17.10;20.30;;;;;;4989724;28;21005;-66
2023/09/30 01:38:19;;;;;;;27.80;14.23;;;17.10;20.50;;;;;;4992355;28;20468;-66
2023/09/30 01:40:48;;;;;;;29.10;12.00;;;17.10;21.00;;;;;;4990614;28;20460;-66
2023/09/30 01:43:15;;;;;;;24.80;13.00;;;17.10;21.00;;;;;;4990593;28;20464;-66
2023/09/30 01:45:42;;;;;;;24.53;11.63;;;17.00;21.10;;;;;;4990282;28;20536;-66
2023/09/30 01:48:10;;;;;;;27.73;11.07;;;17.00;21.30;;;;;;4989586;28;20460;-66
2023/09/30 01:50:38;;;;;;;24.17;11.30;;;17.00;21.60;;;;;;4987670;28;20561;-66
2023/09/30 01:53:05;;;;;;;23.00;10.67;;;16.90;21.90;;;;;;4993960;28;20464;-66
2023/09/30 01:55:31;;;;;;;21.30;10.20;;;16.90;21.80;;;;;;4988408;28;21216;-66
2023/09/30 01:57:59;;;;;;;21.87;10.30;;;16.90;22.20;;;;;;4987163;28;20471;-66
2023/09/30 02:00:28;;;;;;;25.43;11.00;;;16.90;22.20;;;;;;4987576;28;20974;-66
2023/09/30 02:02:54;;;;;;;19.87;10.13;;;16.90;22.20;;;;;;4990093;28;20468;-66
2023/09/30 02:05:22;;;;;;;24.60;11.00;;;16.80;22.10;;;;;;4987190;28;20481;-66
2023/09/30 02:07:49;;;;;;;19.30;8.63;;;16.80;22.20;;;;;;4990054;28;20456;-66
2023/09/30 02:10:17;;;;;;;22.23;10.10;;;16.80;22.20;;;;;;4989095;28;20464;-66
2023/09/30 02:12:43;;;;;;;23.30;11.27;;;16.80;22.30;;;;;;4989933;28;20992;-66
2023/09/30 02:15:13;;;;;;;23.47;10.33;;;16.70;22.30;;;;;;4990425;28;20489;-66
2023/09/30 02:17:39;;;;;;;21.23;10.60;;;16.70;22.60;;;;;;4990002;28;20832;-66
2023/09/30 02:20:12;;;;;;;22.83;9.93;;;16.60;22.80;;;;;;4988157;28;20837;-66
2023/09/30 02:22:39;;;;;;;27.70;12.60;;;16.60;23.10;;;;;;4990237;28;20551;-66
2023/09/30 02:25:07;;;;;;;20.63;10.53;;;16.60;23.40;;;;;;4990848;28;20488;-66
2023/09/30 02:27:34;;;;;;;23.23;11.80;;;16.60;23.50;;;;;;4988685;28;20911;-66
2023/09/30 02:30:01;;;;;;;22.90;10.87;;;16.60;23.50;;;;;;4989745;28;20820;-66
2023/09/30 02:32:30;;;;;;;30.87;11.57;;;16.60;24.00;;;;;;4988478;28;21042;-66
2023/09/30 02:34:56;;;;;;;21.17;11.33;;;16.50;24.20;;;;;;4988444;28;20496;-66
2023/09/30 02:37:23;;;;;;;24.20;11.00;;;16.50;24.30;;;;;;4988585;28;20472;-66
2023/09/30 02:39:50;;;;;;;28.33;12.43;;;16.60;24.20;;;;;;4988587;28;20849;-66
2023/09/30 02:42:17;;;;;;;24.47;11.20;;;16.50;24.10;;;;;;4988684;28;20469;-66
2023/09/30 02:44:43;;;;;;;26.97;11.13;;;16.50;24.40;;;;;;4988730;28;21007;-66
2023/09/30 02:47:10;;;;;;;19.20;9.67;;;16.50;24.80;;;;;;4985757;28;20527;-67
2023/09/30 02:49:38;;;;;;;19.80;10.43;;;16.50;24.60;;;;;;4989720;28;21044;-66
2023/09/30 02:52:05;;;;;;;22.20;9.90;;;16.50;24.50;;;;;;5005942;23;20502;-66
2023/09/30 02:54:32;;;;;;;20.83;11.03;;;16.50;24.90;;;;;;4992180;28;20473;-65
2023/09/30 02:56:59;;;;;;;22.70;10.70;;;16.50;25.00;;;;;;4989550;28;20550;-65
2023/09/30 02:59:27;;;;;;;23.60;10.43;;;16.50;24.60;;;;;;4991827;28;20469;-65
2023/09/30 03:01:53;;;;;;;21.77;11.43;;;16.50;24.50;;;;;;4992393;28;20560;-65
2023/09/30 03:04:21;;;;;;;25.03;10.77;;;16.50;24.70;;;;;;4991589;28;20488;-66
2023/09/30 03:06:49;;;;;;;23.70;10.40;;;16.50;24.70;;;;;;4993006;28;21180;-66
2023/09/30 03:09:16;;;;;;;21.50;10.40;;;16.50;24.90;;;;;;4990129;28;20467;-64
2023/09/30 03:11:43;;;;;;;26.20;12.20;;;16.40;24.60;;;;;;4991147;28;20469;-64
2023/09/30 03:14:10;;;;;;;22.53;11.10;;;16.40;24.60;;;;;;4994741;28;20483;-64
2023/09/30 03:16:38;;;;;;;21.00;10.07;;;16.40;24.40;;;;;;4993199;28;20493;-64
2023/09/30 03:19:08;;;;;;;19.30;9.40;;;16.40;24.60;;;;;;4994161;28;20546;-64
2023/09/30 03:21:35;;;;;;;20.33;9.47;;;16.40;24.40;;;;;;4993465;28;20468;-64
2023/09/30 03:24:04;;;;;;;21.53;10.30;;;16.30;24.20;;;;;;4991114;28;20980;-64
2023/09/30 03:26:30;;;;;;;22.03;10.60;;;16.30;24.20;;;;;;4989543;28;20798;-64
2023/09/30 03:28:57;;;;;;;22.07;11.00;;;16.30;24.10;;;;;;4989995;28;20465;-64
2023/09/30 03:31:25;;;;;;;24.60;11.97;;;16.30;24.20;;;;;;4989881;28;20491;-64
2023/09/30 03:33:53;;;;;;;19.17;10.17;;;16.30;24.20;;;;;;4985687;28;20543;-64
2023/09/30 03:36:20;;;;;;;22.50;11.60;;;16.20;24.20;;;;;;4986971;28;20485;-64
2023/09/30 03:38:47;;;;;;;23.00;10.63;;;16.20;24.20;;;;;;4986924;28;20520;-64
2023/09/30 03:41:15;;;;;;;23.63;11.80;;;16.20;24.40;;;;;;4988058;28;20471;-64
2023/09/30 03:43:42;;;;;;;23.23;11.10;;;16.10;24.60;;;;;;4986917;28;20489;-64
2023/09/30 03:46:09;;;;;;;23.50;11.17;;;16.10;24.90;;;;;;4986310;28;20457;-64
2023/09/30 03:48:39;;;;;;;18.23;9.70;;;16.00;24.80;;;;;;4988795;28;20527;-64
2023/09/30 03:51:09;;;;;;;22.33;9.87;;;16.00;24.90;;;;;;4985308;28;20501;-64
2023/09/30 03:53:36;;;;;;;24.77;12.47;;;16.00;25.60;;;;;;4983974;28;20489;-64
2023/09/30 03:56:03;;;;;;;19.67;10.77;;;16.00;25.70;;;;;;4987395;28;20551;-64
2023/09/30 03:58:32;;;;;;;21.50;10.43;;;16.00;26.20;;;;;;4987514;28;20468;-64
2023/09/30 04:01:00;;;;;;;22.60;10.40;;;16.00;26.10;;;;;;4985950;28;20473;-64
2023/09/30 04:03:27;;;;;;;19.70;10.50;;;16.00;25.80;;;;;;4986201;28;20461;-64
2023/09/30 04:05:53;;;;;;;20.67;10.80;;;16.00;25.90;;;;;;4987345;28;21229;-64
2023/09/30 04:08:22;;;;;;;20.67;10.17;;;15.90;26.20;;;;;;4982179;28;20461;-64
2023/09/30 04:10:49;;;;;;;18.13;8.70;;;15.90;26.40;;;;;;4986034;28;20535;-64
2023/09/30 04:13:16;;;;;;;20.60;10.77;;;15.90;26.70;;;;;;4985830;28;20467;-64
2023/09/30 04:15:46;;;;;;;23.67;11.70;;;15.90;26.40;;;;;;4988561;28;20545;-64
2023/09/30 04:18:13;;;;;;;22.17;10.70;;;15.90;26.50;;;;;;4987301;28;20508;-64
2023/09/30 04:20:40;;;;;;;22.33;11.80;;;15.90;27.10;;;;;;4986630;28;20481;-64
2023/09/30 04:23:09;;;;;;;22.53;10.10;;;15.80;27.20;;;;;;4985358;28;20477;-64
2023/09/30 04:25:36;;;;;;;22.20;9.73;;;15.80;27.30;;;;;;4984936;28;20525;-64
2023/09/30 04:28:04;;;;;;;23.63;11.97;;;15.80;27.30;;;;;;4987516;28;20473;-64
2023/09/30 04:30:32;;;;;;;19.57;10.70;;;15.80;27.00;;;;;;4989786;28;20543;-64
2023/09/30 04:33:04;;;;;;;21.20;10.40;;;15.80;27.00;;;;;;4984127;28;20584;-64
2023/09/30 04:35:31;;;;;;;22.80;10.80;;;15.80;27.10;;;;;;4986278;28;20493;-64
2023/09/30 04:38:00;;;;;;;22.80;10.60;;;15.80;27.10;;;;;;4987967;28;20495;-64
2023/09/30 04:40:27;;;;;;;20.07;9.43;;;15.80;27.20;;;;;;4987804;28;20465;-64
2023/09/30 04:42:58;;;;;;;18.83;10.27;;;15.80;27.10;;;;;;4985777;28;20456;-65
2023/09/30 04:45:26;;;;;;;24.00;11.17;;;15.80;27.10;;;;;;4986982;28;20878;-64
2023/09/30 04:47:52;;;;;;;21.27;10.40;;;15.80;27.20;;;;;;4987635;28;20500;-64
2023/09/30 04:50:21;;;;;;;21.40;10.90;;;15.80;27.20;;;;;;4987006;28;20464;-64
2023/09/30 04:52:48;;;;;;;22.63;10.40;;;15.70;27.30;;;;;;4986383;28;20863;-65
2023/09/30 04:55:16;;;;;;;20.07;10.03;;;15.70;27.00;;;;;;4988257;28;20997;-64
2023/09/30 04:57:45;;;;;;;20.83;10.37;;;15.70;26.90;;;;;;4985342;28;20504;-64
2023/09/30 05:00:13;;;;;;;20.70;9.67;;;15.70;27.00;;;;;;4986174;28;20492;-64
2023/09/30 05:02:40;;;;;;;16.03;7.80;;;15.70;26.60;;;;;;4984467;28;20465;-64
2023/09/30 05:05:08;;;;;;;18.20;8.60;;;15.70;26.60;;;;;;4987059;28;20919;-64
2023/09/30 05:07:36;;;;;;;22.13;9.50;;;15.70;26.60;;;;;;4988513;28;20456;-64
2023/09/30 05:10:05;;;;;;;18.80;9.27;;;15.70;26.80;;;;;;4987185;28;20460;-64
2023/09/30 05:12:32;;;;;;;20.20;9.97;;;15.70;27.10;;;;;;4987297;28;20953;-64
2023/09/30 05:14:59;;;;;;;21.20;8.93;;;15.80;27.30;;;;;;4988789;28;20511;-64
2023/09/30 05:17:26;;;;;;;19.37;8.90;;;15.80;27.40;;;;;;4984668;28;20500;-64
2023/09/30 05:19:53;;;;;;;21.93;10.40;;;15.80;27.40;;;;;;4990896;28;20464;-64
2023/09/30 05:22:23;;;;;;;19.97;10.00;;;15.80;27.50;;;;;;4989725;28;20849;-64
2023/09/30 05:24:51;;;;;;;18.17;9.43;;;15.80;27.40;;;;;;4987735;28;20500;-64
2023/09/30 05:27:18;;;;;;;21.27;8.77;;;15.90;27.50;;;;;;4989196;28;20522;-65
2023/09/30 05:29:45;;;;;;;15.10;8.20;;;15.90;27.80;;;;;;4991257;28;21178;-65
2023/09/30 05:32:13;;;;;;;22.70;10.13;;;15.90;27.90;;;;;;4988611;28;20520;-65
2023/09/30 05:34:40;;;;;;;20.90;9.57;;;15.90;27.30;;;;;;4985047;28;20492;-65
2023/09/30 05:37:06;;;;;;;22.97;9.80;;;16.00;27.30;;;;;;4987290;28;20484;-65
2023/09/30 05:39:33;;;;;;;15.87;7.73;;;16.00;27.60;;;;;;4987847;28;21188;-65
2023/09/30 05:42:02;;;;;;;20.00;9.83;;;16.00;27.60;;;;;;4987539;28;20473;-65
2023/09/30 05:44:29;;;;;;;20.13;8.80;;;16.10;27.70;;;;;;4983221;28;20524;-65
2023/09/30 05:46:56;;;;;;;21.03;9.80;;;16.10;27.70;;;;;;4984986;28;20545;-65
2023/09/30 05:49:23;;;;;;;20.40;9.60;;;16.20;27.60;;;;;;4982624;28;20465;-65
2023/09/30 05:51:51;;;;;;;18.80;9.63;;;16.20;27.40;;;;;;4985399;28;20477;-65
2023/09/30 05:54:17;;;;;;;20.03;9.60;;;16.20;27.50;;;;;;4986840;28;20531;-65
2023/09/30 05:56:44;;;;;;;18.90;8.40;;;16.20;27.40;;;;;;4985340;28;20488;-65
2023/09/30 05:59:13;;;;;;;17.37;8.70;;;16.20;27.30;;;;;;4987270;28;20479;-65
2023/09/30 06:01:40;;;;;;;20.93;10.17;;;16.30;27.40;;;;;;4987141;28;20476;-65
2023/09/30 06:04:07;;;;;;;20.30;9.77;;;16.30;27.30;;;;;;4988032;28;20533;-65
2023/09/30 06:06:34;;;;;;;20.10;9.87;;;16.30;27.40;;;;;;4986337;28;20491;-66
2023/09/30 06:09:01;;;;;;;17.60;9.07;;;16.40;27.30;;;;;;4989698;28;20830;-65
2023/09/30 06:11:29;;;;;;;19.07;9.27;;;16.40;27.10;;;;;;4989956;28;20456;-65
2023/09/30 06:13:56;;;;;;;18.87;10.27;;;16.50;27.00;;;;;;4988706;28;20610;-66
2023/09/30 06:16:26;;;;;;;21.57;10.17;;;16.50;27.00;;;;;;4991089;28;20485;-65
2023/09/30 06:18:53;;;;;;;16.00;8.80;;;16.60;26.70;;;;;;4991895;28;20515;-66
2023/09/30 06:21:20;;;;;;;21.63;9.67;;;16.70;26.50;;;;;;4991605;28;20472;-68
2023/09/30 06:23:48;;;;;;;21.57;8.90;;;16.70;26.20;;;;;;4993623;28;20485;-70
2023/09/30 06:26:16;;;;;;;20.87;9.20;;;16.90;26.20;;;;;;4992459;28;20969;-68
2023/09/30 06:28:43;;;;;;;17.13;8.47;;;17.00;25.90;;;;;;4988014;28;20492;-69
2023/09/30 06:31:10;;;;;;;19.13;9.17;;;17.30;25.60;;;;;;4992172;28;20474;-67
2023/09/30 06:33:39;;;;;;;15.33;8.17;;;17.50;25.00;;;;;;4992160;28;20807;-66
2023/09/30 06:36:10;;;;;;;18.80;8.90;;;17.80;24.20;;;;;;4993866;28;20484;-68
2023/09/30 06:38:37;;;;;;;18.50;8.50;;;18.00;23.40;;;;;;4986593;28;20472;-67
2023/09/30 06:41:05;;;;;;;19.53;8.30;;;18.30;22.70;;;;;;4988265;28;20461;-65
2023/09/30 06:43:32;;;;;;;15.93;8.37;;;18.40;21.60;;;;;;4987159;28;20512;-66
2023/09/30 06:45:59;;;;;;;16.80;9.37;;;18.60;20.70;;;;;;4988801;28;20473;-65
2023/09/30 06:48:25;;;;;;;16.70;8.60;;;18.70;20.50;;;;;;4987864;28;20496;-65
2023/09/30 06:50:54;;;;;;;17.17;7.90;;;19.00;19.80;;;;;;4991107;28;20465;-65
2023/09/30 06:53:23;;;;;;;15.57;8.03;;;19.30;19.10;;;;;;4988575;28;20472;-65
2023/09/30 06:55:51;;;;;;;13.20;7.47;;;19.70;18.30;;;;;;4984810;28;20965;-65
2023/09/30 06:58:20;;;;;;;13.40;7.77;;;20.10;17.50;;;;;;4984069;28;20465;-65
2023/09/30 07:00:48;;;;;;;13.60;6.60;;;20.50;16.40;;;;;;4983391;28;20810;-65
2023/09/30 07:03:15;;;;;;;15.70;7.60;;;20.60;15.70;;;;;;4986942;28;20976;-65
2023/09/30 07:05:42;;;;;;;13.83;7.50;;;20.60;15.40;;;;;;4987844;28;20469;-65
2023/09/30 07:08:10;;;;;;;14.20;7.63;;;20.50;15.10;;;;;;4985906;28;20511;-65
2023/09/30 07:10:37;;;;;;;14.90;7.50;;;20.30;15.20;;;;;;4989312;28;20992;-65
2023/09/30 07:13:06;;;;;;;14.93;8.30;;;20.10;15.50;;;;;;4987068;28;20468;-64
2023/09/30 07:15:33;;;;;;;15.67;8.20;;;20.00;15.90;;;;;;4986893;28;20485;-65
2023/09/30 07:17:59;;;;;;;15.90;7.97;;;20.00;16.30;;;;;;4987544;28;20489;-64
2023/09/30 07:20:26;;;;;;;18.50;7.50;;;20.00;16.50;;;;;;4989085;28;20487;-65
2023/09/30 07:22:53;;;;;;;15.10;8.17;;;20.10;16.70;;;;;;4989180;28;20468;-66
2023/09/30 07:25:21;;;;;;;14.20;7.80;;;20.20;16.20;;;;;;4988873;28;21008;-66
2023/09/30 07:27:48;;;;;;;14.63;7.50;;;20.40;15.60;;;;;;4991610;28;21025;-66
2023/09/30 07:30:15;;;;;;;12.77;7.83;;;20.70;14.90;;;;;;4990692;28;20546;-66
2023/09/30 07:32:42;;;;;;;14.93;7.53;;;20.80;14.60;;;;;;4993649;28;20503;-65
2023/09/30 07:35:10;;;;;;;12.50;6.90;;;20.70;14.50;;;;;;4986862;28;20478;-65
2023/09/30 07:37:37;;;;;;;12.73;6.57;;;20.60;14.40;;;;;;4992408;28;20485;-65
2023/09/30 07:40:04;;;;;;;14.27;7.80;;;20.60;14.90;;;;;;4995615;28;20464;-65
2023/09/30 07:42:33;;;;;;;10.67;6.40;;;20.60;14.60;;;;;;4993704;28;20464;-65
2023/09/30 07:45:00;;;;;;;14.23;7.33;;;20.60;14.50;;;;;;4995364;28;20536;-66
2023/09/30 07:47:26;;;;;;;11.90;6.93;;;20.60;14.40;;;;;;4995328;28;20460;-65
2023/09/30 07:49:53;;;;;;;11.20;6.17;;;20.70;14.80;;;;;;4987799;28;20465;-66
2023/09/30 07:52:20;;;;;;;12.27;6.67;;;20.90;14.20;;;;;;4991890;28;20475;-65
2023/09/30 07:54:47;;;;;;;17.20;7.83;;;21.10;13.60;;;;;;4989000;28;20532;-65
2023/09/30 07:57:14;;;;;;;10.87;6.33;;;21.40;12.80;;;;;;4994811;28;20496;-66
2023/09/30 07:59:42;;;;;;;12.37;6.00;;;22.00;12.00;;;;;;4988167;28;20984;-66
2023/09/30 08:02:09;;;;;;;10.70;6.23;;;22.60;10.60;;;;;;4992758;28;20475;-66
2023/09/30 08:04:36;;;;;;;13.30;6.77;;;23.40;8.80;;;;;;4989983;28;20496;-66
2023/09/30 08:07:03;;;;;;;10.27;6.00;;;24.40;6.60;;;;;;4993260;28;20459;-66
2023/09/30 08:09:29;;;;;;;10.23;5.37;;;25.30;4.30;;;;;;4988569;28;20472;-66
2023/09/30 08:11:57;;;;;;;11.70;6.20;;;26.20;2.10;;;;;;4985310;28;20457;-66
2023/09/30 08:14:23;;;;;;;12.40;5.90;;;27.00;1.00;;;;;;4987071;28;20480;-66
2023/09/30 08:16:51;;;;;;;10.47;6.00;;;27.60;1.00;;;;;;4988775;28;20868;-66
2023/09/30 08:19:20;;;;;;;8.47;6.03;;;27.90;1.00;;;;;;4988214;28;20469;-65
2023/09/30 08:21:47;;;;;;;8.63;5.43;;;27.80;1.00;;;;;;4991943;28;21183;-66
2023/09/30 08:24:14;;;;;;;8.77;5.73;;;27.60;1.00;;;;;;4987238;28;20862;-66
2023/09/30 08:26:41;;;;;;;12.20;6.17;;;27.50;1.00;;;;;;4984701;28;20456;-66
2023/09/30 08:29:07;;;;;;;9.10;5.73;;;27.60;1.00;;;;;;4989644;28;21280;-66
2023/09/30 08:31:34;;;;;;;10.17;6.17;;;27.40;1.00;;;;;;4985742;28;20469;-65
2023/09/30 08:34:03;;;;;;;9.67;5.23;;;27.10;1.00;;;;;;4988615;28;20492;-65
2023/09/30 08:36:30;;;;;;;11.70;5.80;;;27.00;1.00;;;;;;4987623;28;20472;-66
2023/09/30 08:38:58;;;;;;;10.80;5.87;;;27.00;1.00;;;;;;4983059;28;20468;-65
2023/09/30 08:41:31;;;;;;;9.77;6.00;;;26.80;1.00;;;;;;4983309;28;20544;-65
2023/09/30 08:44:01;;;;;;;12.23;6.30;;;26.60;1.00;;;;;;4982939;28;20488;-66
2023/09/30 08:46:31;;;;;;;8.97;5.93;;;26.70;1.00;;;;;;4986709;28;20472;-66
2023/09/30 08:48:59;;;;;;;11.00;5.47;;;27.40;1.00;;;;;;4984195;28;20469;-67
2023/09/30 08:51:29;;;;;;;9.07;5.07;;;28.30;1.00;;;;;;5002891;23;20569;-65
2023/09/30 08:53:56;;;;;;;10.90;6.23;;;29.30;1.00;;;;;;5000339;28;20483;-68
2023/09/30 08:56:27;;;;;;;13.03;5.67;;;29.70;1.00;;;;;;5005470;28;20459;-68
2023/09/30 08:58:57;;;;;;;9.37;5.27;;;30.00;1.00;;;;;;5000694;28;20456;-68
2023/09/30 09:01:25;;;;;;;8.03;4.97;;;31.00;1.00;;;;;;5004304;28;20480;-67
2023/09/30 09:03:52;;;;;;;11.63;5.80;;;31.30;1.00;;;;;;5006846;28;20479;-68
2023/09/30 09:06:19;;;;;;;11.60;6.07;;;30.70;1.00;;;;;;5004807;28;20522;-67
2023/09/30 09:08:48;;;;;;;9.50;5.47;;;30.10;1.00;;;;;;5005590;28;20491;-67
2023/09/30 09:11:15;;;;;;;10.10;4.90;;;29.50;1.00;;;;;;5006372;28;21009;-68
2023/09/30 09:13:50;;;;;;;10.27;6.17;;;28.80;1.00;;;;;;5006919;28;20484;-65
2023/09/30 09:16:19;;;;;;;9.87;5.60;;;28.30;1.00;;;;;;5007489;28;20463;-64
2023/09/30 09:18:47;;;;;;;8.47;5.53;;;28.10;1.00;;;;;;5003434;28;21008;-64
2023/09/30 09:21:15;;;;;;;9.60;5.70;;;28.60;1.00;;;;;;5005746;28;20468;-65
2023/09/30 09:23:43;;;;;;;12.80;5.80;;;30.20;1.00;;;;;;5003864;28;20495;-65
2023/09/30 09:26:12;;;;;;;10.00;6.10;;;32.10;1.00;;;;;;5006848;28;20917;-65
2023/09/30 09:28:39;;;;;;;10.63;6.73;;;32.70;1.00;;;;;;5008162;28;20459;-65
2023/09/30 09:31:26;;;;;;;7.67;5.70;;;32.60;1.00;;;;;;5005629;28;20595;-65
2023/09/30 09:33:53;;;;;;;9.70;5.33;;;32.40;1.00;;;;;;5006864;28;20984;-65
2023/09/30 09:36:20;;;;;;;12.43;5.90;;;32.30;1.00;;;;;;5008569;28;20924;-65
2023/09/30 09:38:48;;;;;;;11.00;5.80;;;32.30;1.00;;;;;;5001687;28;20603;-65
2023/09/30 09:41:17;;;;;;;10.13;5.80;;;32.90;1.00;;;;;;5009857;28;20468;-65
2023/09/30 09:43:46;;;;;;;9.40;5.30;;;34.20;1.00;;;;;;5004624;28;20490;-66
2023/09/30 09:46:13;;;;;;;9.57;5.50;;;35.70;1.00;;;;;;5006105;28;20971;-65
2023/09/30 09:48:41;;;;;;;9.80;5.97;;;36.90;1.00;;;;;;5010102;28;20459;-65
2023/09/30 09:51:12;;;;;;;11.03;5.67;;;37.70;1.00;;;;;;5004759;28;20463;-65
2023/09/30 09:53:41;;;;;;;8.80;5.30;;;38.30;1.00;;;;;;5004255;28;20479;-65
2023/09/30 09:56:10;;;;;;;10.93;5.47;;;38.80;1.00;;;;;;4999038;28;20482;-65
2023/09/30 09:58:38;;;;;;;9.57;6.10;;;38.60;1.00;;;;;;5018956;23;20463;-66
2023/09/30 10:01:06;;;;;;;9.57;5.73;;;37.10;1.00;;;;;;5001391;28;20846;-66
2023/09/30 10:03:34;;;;;;;11.37;6.70;;;35.50;1.00;;;;;;5008038;28;20467;-66
2023/09/30 10:06:01;;;;;;;14.10;7.00;;;34.20;1.00;;;;;;5007039;28;20482;-66
2023/09/30 10:08:34;;;;;;;8.33;5.50;;;33.00;1.00;;;;;;5002698;28;20456;-66
2023/09/30 10:11:02;;;;;;;10.17;6.10;;;32.00;1.00;;;;;;5006004;28;21180;-66
2023/09/30 10:13:52;;;;;;;10.70;6.73;;;31.30;1.00;;;;;;4997288;28;20492;-66
2023/09/30 10:16:51;;;;;;;9.90;6.37;;;30.80;1.00;;;;;;4999377;28;20922;-66
2023/09/30 10:19:22;;;;;;;11.60;6.53;;;30.40;1.00;;;;;;5007448;28;20464;-66
2023/09/30 10:22:23;;;;;;;9.63;6.00;;;30.20;1.00;;;;;;5006830;28;20471;-65
2023/09/30 10:24:52;;;;;;;10.97;6.87;;;30.80;1.00;;;;;;5012046;28;20483;-65
2023/09/30 10:27:33;;;;;;;13.70;7.77;;;31.50;1.00;;;;;;5015896;28;20474;-66
2023/09/30 10:30:13;;;;;;;9.97;6.13;;;32.00;1.00;;;;;;5009276;28;20467;-66
2023/09/30 10:33:12;;;;;;;15.07;8.03;;;32.40;1.00;;;;;;4996930;28;20571;-69
2023/09/30 10:35:49;;;;;;;10.57;6.43;;;32.60;1.00;;;;;;5000823;28;20813;-68
2023/09/30 10:38:49;;;;;;;15.10;7.80;;;32.30;1.00;;;;;;4996318;28;20479;-69
2023/09/30 10:41:51;;;;;;;11.40;6.30;;;32.20;1.00;;;;;;5004674;28;20829;-70
2023/09/30 10:44:33;;;;;;;12.33;6.90;;;32.20;1.00;;;;;;5003219;28;20999;-69
2023/09/30 10:47:21;;;;;;;12.53;6.73;;;32.00;1.00;;;;;;5005501;28;20474;-68
2023/09/30 10:49:48;;;;;;;10.87;6.73;;;31.50;1.00;;;;;;4999932;28;20503;-66
2023/09/30 10:52:22;;;;;;;13.00;7.37;;;30.90;1.00;;;;;;5004547;28;20475;-68
2023/09/30 10:54:50;;;;;;;11.20;6.37;;;30.30;1.00;;;;;;5003510;28;20565;-68
2023/09/30 10:57:27;;;;;;;12.23;7.17;;;30.10;1.00;;;;;;5005279;28;21040;-68
2023/09/30 11:00:10;;;;;;;12.53;6.80;;;29.80;1.00;;;;;;5005546;28;20473;-71
2023/09/30 11:02:49;;;;;;;12.63;6.30;;;29.20;1.00;;;;;;5006003;28;20456;-70
2023/09/30 11:05:15;;;;;;;12.73;6.70;;;28.70;1.00;;;;;;4997576;28;20494;-67
2023/09/30 11:07:43;;;;;;;12.40;6.87;;;28.30;1.00;;;;;;5006290;28;20975;-68
2023/09/30 11:10:12;;;;;;;12.47;6.60;;;28.10;1.00;;;;;;4997534;28;20471;-68
2023/09/30 11:12:39;;;;;;;11.83;6.57;;;28.00;1.00;;;;;;5003548;28;20499;-68
2023/09/30 11:15:09;;;;;;;11.63;6.90;;;28.10;1.00;;;;;;5004006;28;20484;-68
2023/09/30 11:17:36;;;;;;;11.57;6.13;;;28.40;1.00;;;;;;5002362;28;20507;-68
2023/09/30 11:20:06;;;;;;;11.20;6.70;;;28.60;1.00;;;;;;5003304;28;20487;-68
2023/09/30 11:22:34;;;;;;;17.33;6.90;;;28.80;1.00;;;;;;5007068;28;20474;-68
2023/09/30 11:25:03;;;;;;;10.63;6.17;;;28.80;1.00;;;;;;5007399;28;20483;-68
2023/09/30 11:27:31;;;;;;;13.33;7.47;;;29.00;1.00;;;;;;5008104;28;20909;-68
2023/09/30 11:29:58;;;;;;;14.90;6.90;;;29.20;1.00;;;;;;5004668;28;20472;-68
2023/09/30 11:32:27;;;;;;;13.97;7.43;;;29.50;1.00;;;;;;5005720;28;20472;-68
2023/09/30 11:34:54;;;;;;;14.07;7.37;;;29.80;1.00;;;;;;5005461;28;20483;-67
2023/09/30 11:37:22;;;;;;;13.63;7.97;;;30.10;1.00;;;;;;5007366;28;20862;-67
2023/09/30 11:39:51;;;;;;;13.27;6.97;;;30.20;1.00;;;;;;5004395;28;20515;-68
2023/09/30 11:42:19;;;;;;;15.67;7.80;;;30.20;1.00;;;;;;5006934;28;20560;-68
2023/09/30 11:44:47;;;;;;;15.37;8.27;;;29.90;1.00;;;;;;5007138;28;20504;-68
2023/09/30 11:47:15;;;;;;;13.60;7.27;;;29.70;1.00;;;;;;5000121;28;20468;-68
2023/09/30 11:49:44;;;;;;;14.50;7.80;;;29.40;1.00;;;;;;5005746;28;20961;-68
2023/09/30 11:52:13;;;;;;;12.27;7.23;;;29.10;1.00;;;;;;5005418;28;20503;-68
2023/09/30 11:54:43;;;;;;;18.50;6.73;;;28.60;1.00;;;;;;5002893;28;20484;-68
2023/09/30 11:57:11;;;;;;;14.73;6.90;;;28.40;1.00;;;;;;5004637;28;20527;-68
2023/09/30 11:59:40;;;;;;;17.03;8.17;;;28.50;1.00;;;;;;5005479;28;20507;-68
2023/09/30 12:02:08;;;;;;;16.53;7.90;;;28.60;1.00;;;;;;5002411;28;20480;-67
2023/09/30 12:04:35;;;;;;;15.00;8.00;;;28.30;1.00;;;;;;5003402;28;20563;-67
2023/09/30 12:07:02;;;;;;;23.30;8.23;;;28.10;1.00;;;;;;5006539;28;20456;-67
2023/09/30 12:09:30;;;;;;;14.40;7.10;;;27.80;1.00;;;;;;5002788;28;23668;-67
2023/09/30 12:11:59;;;;;;;19.37;7.57;;;27.50;1.00;;;;;;4995148;28;20550;-68
2023/09/30 12:14:26;;;;;;;13.30;7.70;;;27.30;1.00;;;;;;4998720;28;20578;-68
2023/09/30 12:16:52;;;;;;;14.10;7.30;;;27.00;1.00;;;;;;4997884;28;20889;-67
2023/09/30 12:19:20;;;;;;;15.83;7.77;;;26.70;1.00;;;;;;4997042;28;20498;-69
2023/09/30 12:21:48;;;;;;;14.00;7.93;;;26.70;1.00;;;;;;5003713;28;20467;-69
2023/09/30 12:24:16;;;;;;;14.37;8.33;;;26.50;1.00;;;;;;4999989;28;21358;-68
2023/09/30 12:26:42;;;;;;;13.27;7.00;;;26.30;1.00;;;;;;5004001;28;20475;-69
2023/09/30 12:29:10;;;;;;;15.70;7.60;;;26.20;1.00;;;;;;5005039;28;20956;-66
2023/09/30 12:31:38;;;;;;;16.63;8.73;;;26.00;1.00;;;;;;5007575;28;20808;-66
2023/09/30 12:34:05;;;;;;;15.43;7.60;;;25.90;1.00;;;;;;5007004;28;20554;-66
2023/09/30 12:36:32;;;;;;;12.47;7.20;;;25.80;1.00;;;;;;5005775;28;20463;-68
2023/09/30 12:38:59;;;;;;;17.87;8.10;;;25.80;1.00;;;;;;5004020;28;22246;-66
2023/09/30 12:41:26;;;;;;;16.70;8.90;;;25.80;1.00;;;;;;5001764;28;20802;-67
2023/09/30 12:43:53;;;;;;;18.13;8.33;;;25.90;1.00;;;;;;5004230;28;20499;-67
2023/09/30 12:46:21;;;;;;;16.80;8.53;;;25.90;1.00;;;;;;5011771;28;20464;-67